createdAt,value
2022-12-28T00:00:19.534Z,11.80
2022-12-28T00:02:48.824Z,12.40
2022-12-28T00:05:18.745Z,13.00
2022-12-28T00:07:47.996Z,13.20
2022-12-28T00:10:17.946Z,13.53
2022-12-28T00:13:08.572Z,13.10
2022-12-28T00:15:39.487Z,12.57
2022-12-28T00:18:09.118Z,12.50
2022-12-28T00:20:38.361Z,13.60
2022-12-28T00:23:08.116Z,12.80
2022-12-28T00:25:37.536Z,14.70
2022-12-28T00:28:08.910Z,14.47
2022-12-28T00:30:38.112Z,14.90
2022-12-28T00:33:07.280Z,14.80
2022-12-28T00:35:36.670Z,13.83
2022-12-28T00:38:05.944Z,15.00
2022-12-28T00:40:35.302Z,13.27
2022-12-28T00:43:04.510Z,14.20
2022-12-28T00:45:35.236Z,13.43
2022-12-28T00:48:04.508Z,12.83
2022-12-28T00:50:33.724Z,14.20
2022-12-28T00:53:03.538Z,12.70
2022-12-28T00:55:33.354Z,13.60
2022-12-28T00:58:03.022Z,12.37
2022-12-28T01:00:33.116Z,11.57
2022-12-28T01:03:03.877Z,11.23
2022-12-28T01:05:33.494Z,12.40
2022-12-28T01:08:02.764Z,11.07
2022-12-28T01:10:32.029Z,11.70
2022-12-28T01:13:01.407Z,10.50
2022-12-28T01:15:30.728Z,11.03
2022-12-28T01:17:59.837Z,11.47
2022-12-28T01:20:31.102Z,12.57
2022-12-28T01:23:00.298Z,11.53
2022-12-28T01:25:29.402Z,11.43
2022-12-28T01:27:59.739Z,12.13
2022-12-28T01:30:30.519Z,11.70
2022-12-28T01:33:01.800Z,11.20
2022-12-28T01:35:32.449Z,11.30
2022-12-28T01:38:01.809Z,12.10
2022-12-28T01:40:31.401Z,12.97
2022-12-28T01:43:00.555Z,12.50
2022-12-28T01:45:29.852Z,11.30
2022-12-28T01:47:59.682Z,10.80
2022-12-28T01:50:30.192Z,12.30
2022-12-28T01:53:04.900Z,12.93
2022-12-28T01:55:36.892Z,12.27
2022-12-28T01:58:08.073Z,11.23
2022-12-28T02:00:37.823Z,11.43
2022-12-28T02:03:09.727Z,11.67
2022-12-28T02:05:40.880Z,10.93
2022-12-28T02:08:13.918Z,12.37
2022-12-28T02:10:46.053Z,12.17
2022-12-28T02:13:19.341Z,12.30
2022-12-28T02:15:49.758Z,11.90
2022-12-28T02:18:20.280Z,11.90
2022-12-28T02:21:09.593Z,12.13
2022-12-28T02:23:48.128Z,11.13
2022-12-28T02:26:42.898Z,11.50
2022-12-28T02:29:28.807Z,10.63
2022-12-28T02:32:02.380Z,12.67
2022-12-28T02:34:34.886Z,11.20
2022-12-28T02:37:08.182Z,12.60
2022-12-28T02:39:40.529Z,10.83
2022-12-28T02:42:11.090Z,10.80
2022-12-28T02:44:59.470Z,12.00
2022-12-28T02:47:46.744Z,10.80
2022-12-28T02:50:17.871Z,11.50
2022-12-28T02:53:04.750Z,10.50
2022-12-28T02:55:59.873Z,9.90
2022-12-28T02:58:40.577Z,9.60
2022-12-28T03:01:17.886Z,9.33
2022-12-28T03:03:52.811Z,8.00
2022-12-28T03:06:43.359Z,8.90
2022-12-28T03:09:15.861Z,8.73
2022-12-28T03:11:50.835Z,9.07
2022-12-28T03:14:22.637Z,8.23
2022-12-28T03:17:13.050Z,8.03
2022-12-28T03:20:02.046Z,6.70
2022-12-28T03:22:50.295Z,7.53
2022-12-28T03:25:39.313Z,8.60
2022-12-28T03:28:28.860Z,8.67
2022-12-28T03:31:06.943Z,10.50
2022-12-28T03:33:43.775Z,9.63
2022-12-28T03:36:17.691Z,11.50
2022-12-28T03:38:51.689Z,10.10
2022-12-28T03:41:23.998Z,10.87
2022-12-28T03:43:56.842Z,10.47
2022-12-28T03:46:30.489Z,10.70
2022-12-28T03:49:01.701Z,10.20
2022-12-28T03:51:32.992Z,9.93
2022-12-28T03:54:08.014Z,10.87
2022-12-28T03:56:37.252Z,10.50
2022-12-28T03:59:06.468Z,8.83
2022-12-28T04:01:42.102Z,8.77
2022-12-28T04:04:13.353Z,8.70
2022-12-28T04:06:44.195Z,8.90
2022-12-28T04:09:13.486Z,8.50
2022-12-28T04:11:43.904Z,8.10
2022-12-28T04:14:21.174Z,9.37
2022-12-28T04:16:51.535Z,8.00
2022-12-28T04:19:23.893Z,9.10
2022-12-28T04:21:54.428Z,9.60
2022-12-28T04:24:23.822Z,9.73
2022-12-28T04:26:53.072Z,9.50
2022-12-28T04:29:22.360Z,9.40
2022-12-28T04:32:00.438Z,10.17
2022-12-28T04:34:31.116Z,9.73
2022-12-28T04:37:07.225Z,9.40
2022-12-28T04:39:56.204Z,10.27
2022-12-28T04:42:26.094Z,10.77
2022-12-28T04:44:55.483Z,9.57
2022-12-28T04:47:24.689Z,9.20
2022-12-28T04:49:55.313Z,10.00
2022-12-28T04:52:24.623Z,8.80
2022-12-28T04:54:53.833Z,9.47
2022-12-28T04:57:23.027Z,8.90
2022-12-28T04:59:52.213Z,9.90
2022-12-28T05:02:21.551Z,9.50
2022-12-28T05:04:51.215Z,8.60
2022-12-28T05:07:21.913Z,8.20
2022-12-28T05:09:51.040Z,8.83
2022-12-28T05:12:20.394Z,8.20
2022-12-28T05:14:49.576Z,7.63
2022-12-28T05:17:19.206Z,7.80
2022-12-28T05:19:48.418Z,8.00
2022-12-28T05:22:18.243Z,8.10
2022-12-28T05:24:49.007Z,8.00
2022-12-28T05:27:18.234Z,8.60
2022-12-28T05:29:47.579Z,7.80
2022-12-28T05:32:16.851Z,7.60
2022-12-28T05:34:46.046Z,7.33
2022-12-28T05:37:20.214Z,8.03
2022-12-28T05:39:52.682Z,7.60
2022-12-28T05:42:21.877Z,8.27
2022-12-28T05:44:51.139Z,14.40
2022-12-28T05:47:20.314Z,7.97
2022-12-28T05:49:49.961Z,7.43
2022-12-28T05:52:19.224Z,7.70
2022-12-28T05:54:48.492Z,7.43
2022-12-28T05:57:19.033Z,7.03
2022-12-28T05:59:48.209Z,8.00
2022-12-28T06:02:21.622Z,7.13
2022-12-28T06:04:54.071Z,8.97
2022-12-28T06:07:23.473Z,8.27
2022-12-28T06:09:52.695Z,8.83
2022-12-28T06:12:23.282Z,8.13
2022-12-28T06:14:52.635Z,8.50
2022-12-28T06:17:21.803Z,7.40
2022-12-28T06:19:51.155Z,9.83
2022-12-28T06:22:20.241Z,8.23
2022-12-28T06:24:49.495Z,6.83
2022-12-28T06:27:19.096Z,7.90
2022-12-28T06:29:49.629Z,7.70
2022-12-28T06:32:18.799Z,7.70
2022-12-28T06:34:48.183Z,7.47
2022-12-28T06:37:17.333Z,7.70
2022-12-28T06:39:46.538Z,8.60
2022-12-28T06:42:15.724Z,7.87
2022-12-28T06:44:45.032Z,8.33
2022-12-28T06:47:15.668Z,7.70
2022-12-28T06:49:44.871Z,8.97
2022-12-28T06:52:14.091Z,7.77
2022-12-28T06:54:43.351Z,7.70
2022-12-28T06:57:12.900Z,9.37
2022-12-28T06:59:42.164Z,10.30
2022-12-28T07:02:11.682Z,8.60
2022-12-28T07:04:42.535Z,8.27
2022-12-28T07:07:11.676Z,8.50
2022-12-28T07:09:40.883Z,8.80
2022-12-28T07:12:10.194Z,9.60
2022-12-28T07:14:39.751Z,8.13
2022-12-28T07:17:08.900Z,7.07
2022-12-28T07:19:38.155Z,5.80
2022-12-28T07:22:08.806Z,8.50
2022-12-28T07:24:38.137Z,7.50
2022-12-28T07:27:07.638Z,9.30
2022-12-28T07:29:36.930Z,8.40
2022-12-28T07:32:06.304Z,9.10
2022-12-28T07:34:35.668Z,10.33
2022-12-28T07:37:04.813Z,9.20
2022-12-28T07:39:36.773Z,11.10
2022-12-28T07:42:08.446Z,8.90
2022-12-28T07:44:38.363Z,8.90
2022-12-28T07:47:08.066Z,8.63
2022-12-28T07:49:37.312Z,8.37
2022-12-28T07:52:06.706Z,7.80
2022-12-28T07:54:37.366Z,7.80
2022-12-28T07:57:06.683Z,8.63
2022-12-28T07:59:36.047Z,8.43
2022-12-28T08:02:05.483Z,8.93
2022-12-28T08:04:34.708Z,9.43
2022-12-28T08:07:03.987Z,9.33
2022-12-28T08:09:33.242Z,8.50
2022-12-28T08:12:03.900Z,9.90
2022-12-28T08:14:33.337Z,10.20
2022-12-28T08:17:02.643Z,11.93
2022-12-28T08:19:31.771Z,11.97
2022-12-28T08:22:01.997Z,14.07
2022-12-28T08:24:31.853Z,12.80
2022-12-28T08:27:01.052Z,11.63
2022-12-28T08:29:31.878Z,10.40
2022-12-28T08:32:01.236Z,12.17
2022-12-28T08:34:31.018Z,11.97
2022-12-28T08:37:00.287Z,19.20
2022-12-28T08:39:29.528Z,15.60
2022-12-28T08:41:58.653Z,17.17
2022-12-28T08:44:28.541Z,16.53
2022-12-28T08:46:59.240Z,14.77
2022-12-28T08:49:28.653Z,13.17
2022-12-28T08:51:58.486Z,14.27
2022-12-28T08:54:27.813Z,12.83
2022-12-28T08:56:57.029Z,15.50
2022-12-28T08:59:26.419Z,12.33
2022-12-28T09:01:55.704Z,18.13
2022-12-28T09:04:26.365Z,11.63
2022-12-28T09:06:55.996Z,11.80
2022-12-28T09:09:25.257Z,12.37
2022-12-28T09:11:54.559Z,11.10
2022-12-28T09:14:24.719Z,11.47
2022-12-28T09:16:54.639Z,13.23
2022-12-28T09:19:24.408Z,14.70
2022-12-28T09:21:55.585Z,13.20
2022-12-28T09:24:24.944Z,11.33
2022-12-28T09:26:55.547Z,14.33
2022-12-28T09:29:24.959Z,8.80
2022-12-28T09:31:54.153Z,10.67
2022-12-28T09:34:35.534Z,9.83
2022-12-28T09:37:07.569Z,6.80
2022-12-28T09:39:37.040Z,6.73
2022-12-28T09:42:08.612Z,6.47
2022-12-28T09:44:42.418Z,7.40
2022-12-28T09:47:18.609Z,8.03
2022-12-28T09:49:54.534Z,6.50
2022-12-28T09:52:30.959Z,6.90
2022-12-28T09:55:07.146Z,6.37
2022-12-28T09:57:39.327Z,6.80
2022-12-28T10:00:10.034Z,6.00
2022-12-28T10:02:41.444Z,7.47
2022-12-28T10:05:11.137Z,7.80
2022-12-28T10:07:42.054Z,6.90
2022-12-28T10:10:15.448Z,10.37
2022-12-28T10:12:45.491Z,7.13
2022-12-28T10:15:14.986Z,14.20
2022-12-28T10:17:44.591Z,8.27
2022-12-28T10:20:18.174Z,6.20
2022-12-28T10:22:51.415Z,6.17
2022-12-28T10:25:22.304Z,6.83
2022-12-28T10:27:51.758Z,6.40
2022-12-28T10:30:24.220Z,13.10
2022-12-28T10:33:01.403Z,5.97
2022-12-28T10:35:33.561Z,6.20
2022-12-28T10:38:06.313Z,8.80
2022-12-28T10:40:37.252Z,8.27
2022-12-28T10:43:10.839Z,6.90
2022-12-28T10:45:42.066Z,15.07
2022-12-28T10:48:12.696Z,8.47
2022-12-28T10:50:43.872Z,9.43
2022-12-28T10:53:27.814Z,10.33
2022-12-28T10:56:03.785Z,10.77
2022-12-28T10:58:34.208Z,10.93
2022-12-28T11:01:05.039Z,10.90
2022-12-28T11:03:36.058Z,11.30
2022-12-28T11:06:17.881Z,10.60
2022-12-28T11:09:02.496Z,11.83
2022-12-28T11:11:31.791Z,12.63
2022-12-28T11:14:02.602Z,10.90
2022-12-28T11:16:33.466Z,12.93
2022-12-28T11:19:02.803Z,12.37
2022-12-28T11:21:32.094Z,12.47
2022-12-28T11:24:03.385Z,12.40
2022-12-28T11:26:32.740Z,11.87
2022-12-28T11:29:03.575Z,11.93
2022-12-28T11:31:35.795Z,14.63
2022-12-28T11:34:06.644Z,15.03
2022-12-28T11:36:42.232Z,13.23
2022-12-28T11:39:30.058Z,13.27
2022-12-28T11:44:52.157Z,12.90
2022-12-28T11:47:33.181Z,13.17
2022-12-28T11:50:21.117Z,13.00
2022-12-28T11:52:52.276Z,13.10
2022-12-28T11:55:39.988Z,12.40
2022-12-28T11:58:42.408Z,13.10
2022-12-28T12:01:13.836Z,12.33
2022-12-28T12:04:01.557Z,12.23
2022-12-28T12:06:45.988Z,13.00
2022-12-28T12:09:28.669Z,13.10
2022-12-28T12:11:59.273Z,14.30
2022-12-28T12:14:30.271Z,15.30
2022-12-28T12:17:04.235Z,14.47
2022-12-28T12:19:35.095Z,13.17
2022-12-28T12:22:05.290Z,12.97
2022-12-28T12:24:37.630Z,11.47
2022-12-28T12:27:15.723Z,11.57
2022-12-28T12:29:46.540Z,10.80
2022-12-28T12:32:19.800Z,10.77
2022-12-28T12:34:52.138Z,12.23
2022-12-28T12:37:36.963Z,12.27
2022-12-28T12:40:20.983Z,10.33
2022-12-28T12:42:58.205Z,11.20
2022-12-28T12:45:32.955Z,11.37
2022-12-28T12:48:15.362Z,12.87
2022-12-28T12:50:53.745Z,11.33
2022-12-28T12:53:28.352Z,10.20
2022-12-28T12:56:02.649Z,11.40
2022-12-28T12:58:35.362Z,10.10
2022-12-28T13:01:17.254Z,10.30
2022-12-28T13:03:48.679Z,9.30
2022-12-28T13:06:19.008Z,10.53
2022-12-28T13:08:50.337Z,10.17
2022-12-28T13:11:21.043Z,9.40
2022-12-28T13:13:51.403Z,9.93
2022-12-28T13:16:22.401Z,10.17
2022-12-28T13:18:56.723Z,9.80
2022-12-28T13:21:26.713Z,9.37
2022-12-28T13:23:56.023Z,9.90
2022-12-28T13:26:28.437Z,9.70
2022-12-28T13:28:58.958Z,10.40
2022-12-28T13:31:34.488Z,8.93
2022-12-28T13:34:06.698Z,8.97
2022-12-28T13:36:36.090Z,10.77
2022-12-28T13:39:13.434Z,10.50
2022-12-28T13:41:47.650Z,11.50
2022-12-28T13:44:20.097Z,8.33
2022-12-28T13:46:51.920Z,10.07
2022-12-28T13:49:23.173Z,9.63
2022-12-28T13:51:53.693Z,8.47
2022-12-28T13:54:25.306Z,9.60
2022-12-28T13:57:14.657Z,8.97
2022-12-28T13:59:46.464Z,9.50
2022-12-28T14:02:17.768Z,9.90
2022-12-28T14:04:53.613Z,8.50
2022-12-28T14:07:25.251Z,9.17
2022-12-28T14:09:55.058Z,9.70
2022-12-28T14:12:24.401Z,9.83
2022-12-28T14:14:53.822Z,11.40
2022-12-28T14:17:24.276Z,11.30
2022-12-28T14:19:57.439Z,10.47
2022-12-28T14:22:27.519Z,11.20
2022-12-28T14:25:03.640Z,12.10
2022-12-28T14:27:36.579Z,11.60
2022-12-28T14:30:07.124Z,11.50
2022-12-28T14:32:42.568Z,11.57
2022-12-28T14:35:20.365Z,12.17
2022-12-28T14:37:53.025Z,11.43
2022-12-28T14:40:26.507Z,13.20
2022-12-28T14:42:56.558Z,12.63
2022-12-28T14:46:05.050Z,11.90
2022-12-28T14:48:32.780Z,11.17
2022-12-28T14:51:04.550Z,11.50
2022-12-28T14:53:34.403Z,11.53
2022-12-28T14:56:06.061Z,13.63
2022-12-28T14:58:40.560Z,11.80
2022-12-28T15:01:11.726Z,12.20
2022-12-28T15:03:50.806Z,12.10
2022-12-28T15:06:22.066Z,11.43
2022-12-28T15:08:52.108Z,11.70
2022-12-28T15:11:21.504Z,10.70
2022-12-28T15:13:50.961Z,12.10
2022-12-28T15:16:21.150Z,11.60
2022-12-28T15:18:50.580Z,12.80
2022-12-28T15:21:22.665Z,12.23
2022-12-28T15:23:52.226Z,14.83
2022-12-28T15:26:21.714Z,11.73
2022-12-28T15:28:51.091Z,11.53
2022-12-28T15:31:21.051Z,11.23
2022-12-28T15:33:50.584Z,12.17
2022-12-28T15:36:22.862Z,14.80
2022-12-28T15:38:52.106Z,11.77
2022-12-28T15:41:38.856Z,11.90
2022-12-28T15:44:08.202Z,11.70
2022-12-28T15:46:37.467Z,11.70
2022-12-28T15:49:07.484Z,11.97
2022-12-28T15:51:38.037Z,12.00
2022-12-28T15:54:07.475Z,12.50
2022-12-28T15:56:37.380Z,12.07
2022-12-28T15:59:07.807Z,12.87
2022-12-28T16:01:37.077Z,11.87
2022-12-28T16:04:07.060Z,12.60
2022-12-28T16:06:43.954Z,13.80
2022-12-28T16:09:14.953Z,12.13
2022-12-28T16:11:45.008Z,11.33
2022-12-28T16:14:16.416Z,13.00
2022-12-28T16:16:46.162Z,12.00
2022-12-28T16:19:16.129Z,11.77
2022-12-28T16:21:47.007Z,13.23
2022-12-28T16:24:16.340Z,13.33
2022-12-28T16:26:45.652Z,16.80
2022-12-28T16:29:15.198Z,13.50
2022-12-28T16:31:44.468Z,14.33
2022-12-28T16:34:15.119Z,12.10
2022-12-28T16:36:44.741Z,12.03
2022-12-28T16:39:16.681Z,12.00
2022-12-28T16:41:46.722Z,12.77
2022-12-28T16:44:16.836Z,12.07
2022-12-28T16:46:46.195Z,12.40
2022-12-28T16:49:15.672Z,12.70
2022-12-28T16:51:45.661Z,11.80
2022-12-28T16:54:18.059Z,13.37
2022-12-28T16:56:48.039Z,13.13
2022-12-28T16:59:17.604Z,12.57
2022-12-28T17:01:47.278Z,12.20
2022-12-28T17:04:16.671Z,12.13
2022-12-28T17:06:46.729Z,11.23
2022-12-28T17:09:17.353Z,10.67
2022-12-28T17:11:48.250Z,14.10
2022-12-28T17:14:29.179Z,12.13
2022-12-28T17:17:05.759Z,11.50
2022-12-28T17:19:35.100Z,11.37
2022-12-28T17:22:04.918Z,11.73
2022-12-28T17:24:35.922Z,12.37
2022-12-28T17:27:08.505Z,12.13
2022-12-28T17:29:40.468Z,12.07
2022-12-28T17:32:09.913Z,11.20
2022-12-28T17:34:39.646Z,12.53
2022-12-28T17:37:09.102Z,12.00
2022-12-28T17:39:40.729Z,14.40
2022-12-28T17:42:10.801Z,12.27
2022-12-28T17:44:40.075Z,10.43
2022-12-28T17:47:09.441Z,9.80
2022-12-28T17:49:38.636Z,15.50
2022-12-28T17:52:08.553Z,10.60
2022-12-28T17:54:39.248Z,10.97
2022-12-28T17:57:10.112Z,11.00
2022-12-28T17:59:39.290Z,10.20
2022-12-28T18:02:11.728Z,8.10
2022-12-28T18:04:41.769Z,10.20
2022-12-28T18:07:11.230Z,12.60
2022-12-28T18:09:41.932Z,7.20
2022-12-28T18:12:11.125Z,7.93
2022-12-28T18:14:40.435Z,9.37
2022-12-28T18:17:09.698Z,9.07
2022-12-28T18:19:39.331Z,9.43
2022-12-28T18:22:08.473Z,10.93
2022-12-28T18:24:37.782Z,11.27
2022-12-28T18:27:08.650Z,9.43
2022-12-28T18:29:38.093Z,9.57
2022-12-28T18:32:07.425Z,9.03
2022-12-28T18:34:36.688Z,9.57
2022-12-28T18:37:05.873Z,9.87
2022-12-28T18:39:35.275Z,9.63
2022-12-28T18:42:04.911Z,10.50
2022-12-28T18:44:35.894Z,11.13
2022-12-28T18:47:05.160Z,11.10
2022-12-28T18:49:34.391Z,12.67
2022-12-28T18:52:03.682Z,13.67
2022-12-28T18:54:32.918Z,13.07
2022-12-28T18:57:02.518Z,11.40
2022-12-28T18:59:31.870Z,14.50
2022-12-28T19:02:07.375Z,18.97
2022-12-28T19:04:37.228Z,12.67
2022-12-28T19:07:06.696Z,12.23
2022-12-28T19:09:35.912Z,10.87
2022-12-28T19:12:05.344Z,11.40
2022-12-28T19:14:34.560Z,12.10
2022-12-28T19:17:05.187Z,12.70
2022-12-28T19:19:34.496Z,14.20
2022-12-28T19:22:03.730Z,13.53
2022-12-28T19:24:32.955Z,19.07
2022-12-28T19:27:02.243Z,16.53
2022-12-28T19:29:32.493Z,16.23
2022-12-28T19:32:01.745Z,17.03
2022-12-28T19:34:32.660Z,16.17
2022-12-28T19:37:02.045Z,14.67
2022-12-28T19:39:31.251Z,14.60
2022-12-28T19:42:00.444Z,14.53
2022-12-28T19:44:29.632Z,17.47
2022-12-28T19:46:59.619Z,18.10
2022-12-28T19:49:28.865Z,14.23
2022-12-28T19:51:59.639Z,15.57
2022-12-28T19:54:28.902Z,14.40
2022-12-28T19:56:58.255Z,15.70
2022-12-28T19:59:27.709Z,16.37
2022-12-28T20:01:57.184Z,16.67
2022-12-28T20:04:26.548Z,13.40
2022-12-28T20:06:55.862Z,16.10
2022-12-28T20:09:26.481Z,13.63
2022-12-28T20:11:55.745Z,17.87
2022-12-28T20:14:25.406Z,16.80
2022-12-28T20:16:54.603Z,17.20
2022-12-28T20:19:23.788Z,16.17
2022-12-28T20:21:53.483Z,17.50
2022-12-28T20:24:22.617Z,16.70
2022-12-28T20:26:59.600Z,17.73
2022-12-28T20:29:30.640Z,16.37
2022-12-28T20:32:00.141Z,19.20
2022-12-28T20:34:29.459Z,17.67
2022-12-28T20:36:58.636Z,17.10
2022-12-28T20:39:28.223Z,18.93
2022-12-28T20:42:16.428Z,19.13
2022-12-28T20:44:45.823Z,18.40
2022-12-28T20:47:15.341Z,18.50
2022-12-28T20:49:44.615Z,18.43
2022-12-28T20:52:13.909Z,16.17
2022-12-28T20:54:43.317Z,17.57
2022-12-28T20:57:13.940Z,18.00
2022-12-28T20:59:43.295Z,17.47
2022-12-28T21:02:12.585Z,16.53
2022-12-28T21:04:41.806Z,15.70
2022-12-28T21:07:11.092Z,14.70
2022-12-28T21:09:40.353Z,14.30
2022-12-28T21:12:09.760Z,14.83
2022-12-28T21:14:40.386Z,15.10
2022-12-28T21:17:09.637Z,13.40
2022-12-28T21:19:38.859Z,14.87
2022-12-28T21:22:08.056Z,15.90
2022-12-28T21:24:38.349Z,14.97
2022-12-28T21:27:07.650Z,15.13
2022-12-28T21:29:37.508Z,15.83
2022-12-28T21:32:09.575Z,15.40
2022-12-28T21:34:38.966Z,16.00
2022-12-28T21:37:21.835Z,16.37
2022-12-28T21:39:51.185Z,17.80
2022-12-28T21:42:20.308Z,16.63
2022-12-28T21:44:49.431Z,16.33
2022-12-28T21:47:20.623Z,16.53
2022-12-28T21:49:50.240Z,17.33
2022-12-28T21:52:19.441Z,17.70
2022-12-28T21:54:48.676Z,18.87
2022-12-28T21:57:17.917Z,18.30
2022-12-28T21:59:47.661Z,16.67
2022-12-28T22:02:35.502Z,16.10
2022-12-28T22:05:24.409Z,15.77
2022-12-28T22:08:13.674Z,19.77
2022-12-28T22:11:00.293Z,16.10
2022-12-28T22:13:29.512Z,20.47
2022-12-28T22:15:58.996Z,17.53
2022-12-28T22:21:18.915Z,18.13
2022-12-28T22:23:48.199Z,18.80
2022-12-28T22:26:17.503Z,16.70
2022-12-28T22:28:46.732Z,16.40
2022-12-28T22:31:16.161Z,23.13
2022-12-28T22:33:45.404Z,17.80
2022-12-28T22:36:15.983Z,15.80
2022-12-28T22:38:46.918Z,14.53
2022-12-28T22:41:16.076Z,16.20
2022-12-28T22:43:45.444Z,15.07
2022-12-28T22:46:15.390Z,16.93
2022-12-28T22:48:44.637Z,14.73
2022-12-28T22:51:14.992Z,17.20
2022-12-28T22:53:44.401Z,16.97
2022-12-28T22:56:20.096Z,13.20
2022-12-28T22:58:49.459Z,14.27
2022-12-28T23:01:19.721Z,14.20
2022-12-28T23:03:49.688Z,15.50
2022-12-28T23:06:19.896Z,15.23
2022-12-28T23:08:49.540Z,15.20
2022-12-28T23:11:34.606Z,13.10
2022-12-28T23:14:17.982Z,12.93
2022-12-28T23:16:47.336Z,13.10
2022-12-28T23:19:45.830Z,13.93
2022-12-28T23:22:33.802Z,12.97
2022-12-28T23:25:20.426Z,13.40
2022-12-28T23:27:51.166Z,13.10
2022-12-28T23:30:21.248Z,13.03
2022-12-28T23:32:51.466Z,14.03
2022-12-28T23:35:21.328Z,12.60
2022-12-28T23:37:50.746Z,12.63
2022-12-28T23:40:20.701Z,10.90
2022-12-28T23:42:54.172Z,11.87
2022-12-28T23:45:24.152Z,12.90
2022-12-28T23:47:54.944Z,14.27
2022-12-28T23:50:24.402Z,12.53
2022-12-28T23:52:53.698Z,11.30
2022-12-28T23:55:22.950Z,14.60
2022-12-28T23:57:53.562Z,11.83
